Time;durP1;ratioP1;P1;durP2;ratioP2;P2;SDS_P1;SDS_P2;PMS_P1;PMS_P2;Temp;Humidity;BMP_temperature;BMP_pressure;BME280_temperature;BME280_humidity;BME280_pressure;Samples;Min_cycle;Max_cycle;Signal;HPM_P1;HPM_P2
2021/11/07 03:45:22;;;;;;;30.30;17.67;;;6.00;98.40;;;;;;5873158;24;21094;31
2021/11/07 03:47:48;;;;;;;34.30;22.70;;;5.90;98.50;;;;;;4829848;29;20215;-78
2021/11/07 03:50:14;;;;;;;26.38;17.90;;;5.80;98.80;;;;;;4836673;29;20038;-78
2021/11/07 03:52:40;;;;;;;26.43;17.60;;;5.80;99.50;;;;;;4851821;29;20333;-78
2021/11/07 03:55:07;;;;;;;31.38;17.85;;;5.80;99.40;;;;;;4836649;29;20045;-78
2021/11/07 03:57:34;;;;;;;30.02;18.38;;;5.80;99.10;;;;;;4851551;29;20330;-78
2021/11/07 03:59:59;;;;;;;27.38;17.80;;;5.80;99.00;;;;;;4836525;29;20049;-78
2021/11/07 04:02:25;;;;;;;29.33;17.88;;;5.70;98.80;;;;;;4836393;29;20328;-78
2021/11/07 04:04:51;;;;;;;36.67;20.55;;;5.70;98.70;;;;;;4851373;29;20033;-78
2021/11/07 04:07:18;;;;;;;29.73;20.50;;;5.60;99.00;;;;;;4830271;29;20045;-78
2021/11/07 04:09:43;;;;;;;37.70;21.42;;;5.60;99.70;;;;;;4836122;29;20042;-78
2021/11/07 04:12:09;;;;;;;37.28;22.13;;;5.70;99.70;;;;;;4821106;29;20086;-78
2021/11/07 04:14:35;;;;;;;31.80;19.83;;;5.70;99.80;;;;;;4836649;29;20233;-78
2021/11/07 04:17:04;;;;;;;42.85;26.73;;;5.70;99.60;;;;;;4833149;29;20361;-78
2021/11/07 04:19:30;;;;;;;43.95;26.65;;;5.70;99.70;;;;;;4840360;29;20152;-78
2021/11/07 04:21:59;;;;;;;41.43;23.77;;;5.70;99.90;;;;;;4817886;29;20040;-78
2021/11/07 04:24:25;;;;;;;41.03;25.85;;;5.70;99.70;;;;;;4829779;29;20311;-78
2021/11/07 04:26:51;;;;;;;38.13;23.45;;;5.60;99.50;;;;;;4851353;29;20033;-78
2021/11/07 04:29:17;;;;;;;36.78;23.02;;;5.60;99.40;;;;;;4820794;29;20262;-78
2021/11/07 04:31:43;;;;;;;38.67;22.88;;;5.60;99.30;;;;;;4851201;29;20133;-78
2021/11/07 04:34:09;;;;;;;40.60;25.13;;;5.50;99.20;;;;;;4866883;29;20086;-78
2021/11/07 04:36:35;;;;;;;91.68;45.15;;;5.40;99.10;;;;;;4836019;29;20033;-78
2021/11/07 04:39:00;;;;;;;69.55;38.13;;;5.40;99.90;;;;;;4835878;29;20278;-78
2021/11/07 04:41:27;;;;;;;71.97;38.20;;;5.40;99.90;;;;;;4852086;29;20041;-78
2021/11/07 04:43:54;;;;;;;69.85;38.05;;;5.50;99.90;;;;;;4852134;29;20074;-78
2021/11/07 04:46:20;;;;;;;60.83;33.00;;;5.50;99.90;;;;;;4843102;29;20072;-78
2021/11/07 04:48:48;;;;;;;55.17;32.38;;;5.50;99.90;;;;;;4853955;29;20046;-79
2021/11/07 04:51:15;;;;;;;57.38;32.65;;;5.50;99.90;;;;;;4869044;29;20061;-78
2021/11/07 04:53:41;;;;;;;62.55;34.33;;;5.40;99.90;;;;;;4867425;29;20380;-78
2021/11/07 04:56:07;;;;;;;69.95;37.60;;;5.40;99.70;;;;;;4850692;29;20037;-78
2021/11/07 04:58:34;;;;;;;62.47;33.38;;;5.30;99.60;;;;;;4847924;29;20081;-78
2021/11/07 05:01:01;;;;;;;63.63;36.03;;;5.30;99.60;;;;;;4866027;29;20150;-78
2021/11/07 05:03:28;;;;;;;57.05;31.88;;;5.20;99.50;;;;;;4839605;29;20034;-78
2021/11/07 05:05:54;;;;;;;62.45;33.70;;;5.20;99.60;;;;;;4860849;29;20218;-78
2021/11/07 05:08:20;;;;;;;65.43;36.95;;;5.10;99.40;;;;;;4853687;29;20033;-78
2021/11/07 05:10:46;;;;;;;65.28;35.70;;;5.10;99.50;;;;;;4850659;29;20036;-78
2021/11/07 05:13:12;;;;;;;83.55;42.60;;;5.10;99.50;;;;;;4829855;29;20041;-78
2021/11/07 05:15:38;;;;;;;83.05;43.88;;;5.00;99.90;;;;;;4856441;29;20033;-78
2021/11/07 05:18:04;;;;;;;81.32;44.05;;;5.10;99.90;;;;;;4842144;29;20109;-78
2021/11/07 05:20:30;;;;;;;74.45;38.22;;;5.10;99.90;;;;;;4882304;29;20339;-78
2021/11/07 05:22:56;;;;;;;93.10;48.65;;;5.10;99.90;;;;;;4863704;29;20037;-78
2021/11/07 05:25:22;;;;;;;119.82;56.72;;;5.10;99.90;;;;;;4863073;29;20090;-78
2021/11/07 05:27:49;;;;;;;105.15;53.40;;;5.10;99.90;;;;;;4857515;29;20038;-78
2021/11/07 05:30:17;;;;;;;95.07;48.93;;;5.20;99.90;;;;;;4842170;29;20057;-78
2021/11/07 05:32:44;;;;;;;91.88;47.97;;;5.20;99.90;;;;;;4857269;29;20329;-78
2021/11/07 05:35:12;;;;;;;83.40;42.83;;;5.20;99.90;;;;;;4857322;29;20034;-78
2021/11/07 05:37:38;;;;;;;113.55;53.00;;;5.30;99.90;;;;;;4862593;29;20030;-78
2021/11/07 05:40:06;;;;;;;88.43;47.58;;;5.30;99.90;;;;;;4872567;29;20333;-77
2021/11/07 05:42:33;;;;;;;113.55;56.30;;;5.30;99.90;;;;;;4872391;29;20034;-77
2021/11/07 05:44:59;;;;;;;121.80;55.10;;;5.30;99.90;;;;;;4871714;29;20030;-77
2021/11/07 05:47:26;;;;;;;102.10;52.72;;;5.40;99.90;;;;;;4840423;29;20291;-77
2021/11/07 05:49:52;;;;;;;;;;;5.40;99.90;;;;;;4857768;29;20058;-78
2021/11/07 05:52:18;;;;;;;109.43;53.27;;;5.30;99.90;;;;;;4872550;29;19920;-78
2021/11/07 05:54:44;;;;;;;97.53;50.20;;;5.30;99.90;;;;;;4856925;29;20041;-79
2021/11/07 05:57:10;;;;;;;94.10;47.03;;;5.20;99.90;;;;;;4872437;29;20029;-78
2021/11/07 05:59:36;;;;;;;104.28;52.35;;;5.20;99.90;;;;;;4872279;29;20298;-79
2021/11/07 06:02:02;;;;;;;112.38;50.53;;;5.10;99.90;;;;;;4841643;29;20224;-78
2021/11/07 06:04:27;;;;;;;117.20;54.72;;;5.10;99.90;;;;;;4878535;29;20038;-78
2021/11/07 06:06:53;;;;;;;104.93;52.47;;;5.10;99.90;;;;;;4856769;29;20292;-78
2021/11/07 06:09:19;;;;;;;89.78;46.70;;;5.20;99.90;;;;;;4872216;29;20108;-78
2021/11/07 06:11:45;;;;;;;77.55;42.97;;;5.20;99.90;;;;;;4866873;29;20277;-78
2021/11/07 06:14:11;;;;;;;77.65;42.33;;;5.30;99.90;;;;;;4872199;29;20036;-78
2021/11/07 06:16:37;;;;;;;79.68;43.70;;;5.30;99.90;;;;;;4853400;29;20109;-78
2021/11/07 06:19:03;;;;;;;92.78;47.15;;;5.30;99.90;;;;;;4838436;29;20105;-78
2021/11/07 06:21:29;;;;;;;90.68;44.15;;;5.30;99.90;;;;;;4844300;29;20033;-78
2021/11/07 06:23:57;;;;;;;81.18;40.38;;;5.30;99.90;;;;;;4856636;29;20356;-78
2021/11/07 06:26:23;;;;;;;76.97;41.08;;;5.30;99.90;;;;;;4852664;29;20034;-79
2021/11/07 06:28:51;;;;;;;80.13;40.47;;;5.30;99.90;;;;;;4862475;29;20045;-78
2021/11/07 06:31:21;;;;;;;66.63;35.22;;;5.30;99.90;;;;;;4847089;29;20045;-78
2021/11/07 06:33:46;;;;;;;73.68;39.83;;;5.30;99.90;;;;;;4838231;29;20061;-79
2021/11/07 06:36:12;;;;;;;75.90;39.85;;;5.40;99.90;;;;;;4822951;29;20207;-78
2021/11/07 06:38:38;;;;;;;61.63;35.60;;;5.40;99.90;;;;;;4855919;29;20333;-78
2021/11/07 06:41:04;;;;;;;62.63;34.80;;;5.40;99.90;;;;;;4856109;29;20042;-77
2021/11/07 06:43:29;;;;;;;57.50;33.72;;;5.50;99.90;;;;;;4840895;29;20142;-77
2021/11/07 06:45:55;;;;;;;54.47;31.80;;;5.50;99.90;;;;;;4855414;29;20069;-78
2021/11/07 06:48:22;;;;;;;58.90;33.88;;;5.50;99.90;;;;;;4855445;29;20116;-79
2021/11/07 06:50:48;;;;;;;48.40;28.30;;;5.70;99.90;;;;;;4859640;29;20044;-79
2021/11/07 06:53:14;;;;;;;50.65;31.92;;;5.80;99.90;;;;;;4848562;29;20085;-79
2021/11/07 06:55:40;;;;;;;46.83;28.38;;;5.90;99.90;;;;;;4851111;29;20033;-79
2021/11/07 06:58:06;;;;;;;53.15;31.55;;;5.90;99.90;;;;;;4822517;29;20049;-79
2021/11/07 07:00:32;;;;;;;50.33;28.27;;;6.00;99.90;;;;;;4865413;29;20325;-79
2021/11/07 07:02:58;;;;;;;51.97;30.85;;;6.00;99.90;;;;;;4864601;29;20025;-79
2021/11/07 07:05:24;;;;;;;43.50;26.23;;;6.10;99.90;;;;;;4833707;29;20082;-79
2021/11/07 07:07:54;;;;;;;48.60;29.45;;;6.20;99.90;;;;;;4866486;29;20340;-79
2021/11/07 07:13:03;;;;;;;48.30;29.00;;;6.30;99.90;;;;;;4850373;29;20341;-79
2021/11/07 07:15:32;;;;;;;50.60;30.02;;;6.30;99.90;;;;;;4855032;29;20063;-79
2021/11/07 07:18:22;;;;;;;45.47;28.20;;;6.40;99.90;;;;;;4855284;29;20060;-79
2021/11/07 07:23:35;;;;;;;45.20;27.55;;;6.50;99.90;;;;;;4855474;29;20148;-78
2021/11/07 07:34:25;;;;;;;62.72;36.22;;;6.70;99.90;;;;;;4831489;29;20046;-79
2021/11/07 07:36:53;;;;;;;78.45;41.50;;;6.90;99.90;;;;;;4824415;29;20049;-79
2021/11/07 07:39:20;;;;;;;68.03;40.20;;;6.90;99.90;;;;;;4829917;29;20058;-79
2021/11/07 07:41:47;;;;;;;75.25;40.67;;;7.10;99.90;;;;;;4832027;29;20042;-77
2021/11/07 07:44:14;;;;;;;69.07;40.38;;;7.20;99.90;;;;;;4815448;29;20039;-79
2021/11/07 07:46:43;;;;;;;72.53;39.65;;;7.30;99.90;;;;;;4831142;29;20061;-79
2021/11/07 07:49:13;;;;;;;64.43;37.13;;;7.40;99.90;;;;;;4841310;29;20070;-79
2021/11/07 07:51:39;;;;;;;61.30;34.40;;;7.50;99.90;;;;;;4831375;29;20045;-79
2021/11/07 07:54:06;;;;;;;59.13;32.53;;;7.60;99.90;;;;;;4816172;29;20072;-78
2021/11/07 07:56:34;;;;;;;53.88;32.97;;;7.80;99.60;;;;;;4846279;29;20150;-79
2021/11/07 07:59:01;;;;;;;60.70;34.22;;;7.90;99.10;;;;;;4830695;29;20039;-79
2021/11/07 08:01:27;;;;;;;;;;;8.00;98.70;;;;;;4846497;29;20381;-79
2021/11/07 08:03:53;;;;;;;50.78;30.23;;;8.10;98.00;;;;;;4834638;29;19909;-79
2021/11/07 08:06:19;;;;;;;55.10;31.23;;;8.20;97.60;;;;;;4815245;29;20093;-79
2021/11/07 08:08:46;;;;;;;55.10;32.65;;;8.30;97.50;;;;;;4813883;29;20376;-79
2021/11/07 08:11:12;;;;;;;54.17;33.28;;;8.40;97.10;;;;;;4865716;29;20037;-78
2021/11/07 08:13:38;;;;;;;54.00;31.47;;;8.50;96.90;;;;;;4858178;29;20066;-78
2021/11/07 08:16:04;;;;;;;54.28;32.20;;;8.60;96.30;;;;;;4852237;29;20092;-79
2021/11/07 08:18:32;;;;;;;47.42;29.98;;;8.60;96.40;;;;;;4835394;29;20237;-79
2021/11/07 08:20:58;;;;;;;47.92;29.88;;;8.80;95.80;;;;;;4849203;29;20553;-79
2021/11/07 08:23:24;;;;;;;47.70;29.35;;;8.90;95.60;;;;;;4851814;29;20041;-79
2021/11/07 08:25:50;;;;;;;48.33;29.33;;;8.90;95.50;;;;;;4845468;29;20033;-79
2021/11/07 08:28:21;;;;;;;41.93;27.03;;;9.00;95.10;;;;;;4864918;29;20053;-79
2021/11/07 08:30:52;;;;;;;44.45;28.23;;;9.00;94.30;;;;;;4868701;29;20348;-79
2021/11/07 08:33:18;;;;;;;44.95;28.48;;;9.20;94.10;;;;;;4868953;29;20032;-79
2021/11/07 08:35:46;;;;;;;40.13;26.52;;;9.20;93.70;;;;;;4872348;29;20032;-79
2021/11/07 08:38:16;;;;;;;40.45;25.90;;;9.20;93.40;;;;;;4853642;29;20048;-79
2021/11/07 08:40:46;;;;;;;38.60;25.15;;;9.30;93.00;;;;;;4853437;29;20044;-78
2021/11/07 09:05:21;;;;;;;31.48;21.08;;;10.30;89.60;;;;;;4867688;29;20037;-79
2021/11/07 09:10:39;;;;;;;33.40;21.95;;;10.50;87.90;;;;;;4852207;29;20052;-79
2021/11/07 09:13:07;;;;;;;34.47;22.83;;;10.60;87.60;;;;;;4833809;29;20042;-79
2021/11/07 09:15:35;;;;;;;34.78;22.58;;;10.80;87.60;;;;;;4853289;29;20290;-79
2021/11/07 09:18:01;;;;;;;38.65;25.25;;;10.90;86.20;;;;;;4842121;29;20063;-79
2021/11/07 09:20:43;;;;;;;38.38;24.80;;;11.00;85.50;;;;;;4849537;29;20053;-79
2021/11/07 09:23:29;;;;;;;34.85;24.17;;;11.20;86.70;;;;;;4855468;29;20042;-79
2021/11/07 09:28:27;;;;;;;33.80;22.08;;;11.50;85.50;;;;;;4861934;29;20349;-79
2021/11/07 09:38:47;;;;;;;31.45;21.98;;;12.00;82.30;;;;;;4861952;29;20365;-79
2021/11/07 09:49:31;;;;;;;30.10;20.58;;;12.20;80.90;;;;;;4867079;29;20041;-79
2021/11/07 09:52:18;;;;;;;29.05;19.98;;;12.30;79.50;;;;;;4851691;29;20038;-79
2021/11/07 09:54:53;;;;;;;29.25;19.50;;;12.40;78.00;;;;;;4851729;29;20161;-79
2021/11/07 09:57:22;;;;;;;27.30;17.77;;;12.40;77.50;;;;;;4867266;29;20052;-79
2021/11/07 09:59:54;;;;;;;25.50;17.90;;;12.50;78.30;;;;;;4842691;29;20038;-79
2021/11/07 10:02:21;;;;;;;26.98;17.98;;;12.70;78.20;;;;;;4868430;29;20068;-79
2021/11/07 10:04:49;;;;;;;29.42;16.45;;;12.80;76.00;;;;;;4828650;29;20037;-80
2021/11/07 10:07:22;;;;;;;22.63;15.30;;;12.90;76.60;;;;;;4853748;29;20037;-79
2021/11/07 10:09:55;;;;;;;23.38;14.80;;;13.00;76.20;;;;;;4868655;29;20359;-79
2021/11/07 10:12:33;;;;;;;20.63;14.05;;;13.10;74.00;;;;;;4844244;29;20038;-79
2021/11/07 10:15:03;;;;;;;16.77;11.60;;;13.30;73.60;;;;;;4869936;29;20057;-79
2021/11/07 10:20:30;;;;;;;16.42;10.13;;;13.40;72.20;;;;;;4861175;29;20037;-78
2021/11/07 10:23:06;;;;;;;15.43;10.70;;;13.30;69.80;;;;;;4850565;29;20033;-78
2021/11/07 10:25:41;;;;;;;15.07;10.55;;;13.30;70.90;;;;;;4850839;29;20037;-78
2021/11/07 10:28:28;;;;;;;18.77;10.05;;;13.30;70.00;;;;;;4862827;29;20334;-78
2021/11/07 10:31:02;;;;;;;;;;;13.50;70.20;;;;;;4865403;29;20029;-78
2021/11/07 10:42:29;;;;;;;10.60;6.75;;;13.20;65.00;;;;;;4859776;29;20092;-78
2021/11/07 10:45:12;;;;;;;9.50;6.07;;;13.20;62.90;;;;;;4848185;29;20045;-78
2021/11/07 10:53:14;;;;;;;7.90;5.45;;;13.20;62.40;;;;;;4853195;29;20041;-78
2021/11/07 10:55:43;;;;;;;9.32;5.70;;;13.30;62.80;;;;;;4852587;29;20110;-78
2021/11/07 10:58:09;;;;;;;8.90;6.05;;;13.30;63.40;;;;;;4869776;29;20081;-77
2021/11/07 11:00:55;;;;;;;7.75;5.05;;;13.40;63.70;;;;;;4859657;29;20037;-79
2021/11/07 11:03:23;;;;;;;6.93;4.97;;;13.60;61.70;;;;;;4843181;29;20158;-79
2021/11/07 11:06:10;;;;;;;5.97;3.80;;;13.70;61.70;;;;;;4843447;29;20044;-78
2021/11/07 11:08:44;;;;;;;5.55;3.72;;;13.70;58.80;;;;;;4875584;29;20435;-79
2021/11/07 11:13:54;;;;;;;5.55;2.75;;;13.60;57.90;;;;;;4867059;29;20112;-79
2021/11/07 11:30:32;;;;;;;3.38;2.33;;;13.40;56.30;;;;;;4852846;29;20535;-77
2021/11/07 11:33:16;;;;;;;4.68;2.70;;;13.30;56.30;;;;;;4865091;29;20045;-79
2021/11/07 11:38:26;;;;;;;3.53;2.20;;;13.30;54.90;;;;;;4868069;29;20041;-79
2021/11/07 11:43:36;;;;;;;4.25;2.58;;;13.40;55.30;;;;;;4865036;29;20279;-80
2021/11/07 11:46:28;;;;;;;6.57;2.58;;;13.40;55.40;;;;;;4866716;29;20045;-79
2021/11/07 11:52:18;;;;;;;3.90;2.33;;;13.60;55.10;;;;;;4866869;29;20033;-79
2021/11/07 11:55:00;;;;;;;3.03;2.15;;;13.60;54.70;;;;;;4868109;29;20298;-79
2021/11/07 11:57:53;;;;;;;2.83;2.08;;;13.50;53.10;;;;;;4839075;29;20073;-79
2021/11/07 12:03:53;;;;;;;4.65;2.53;;;13.30;53.60;;;;;;4876845;29;20029;-79
2021/11/07 12:14:34;;;;;;;3.45;1.92;;;13.40;52.70;;;;;;4868296;29;20237;-80
2021/11/07 12:17:05;;;;;;;2.97;2.08;;;13.40;52.20;;;;;;4849489;29;20035;-79
2021/11/07 12:19:39;;;;;;;3.65;1.50;;;13.40;52.60;;;;;;4868845;29;20033;-79
2021/11/07 12:22:08;;;;;;;2.40;1.63;;;13.40;51.90;;;;;;4869059;29;20040;-80
2021/11/07 12:24:35;;;;;;;2.60;1.92;;;13.40;52.20;;;;;;4868600;29;20037;-80
2021/11/07 12:27:24;;;;;;;5.55;2.22;;;13.40;51.30;;;;;;4865399;29;20093;-80
2021/11/07 12:29:57;;;;;;;3.50;2.00;;;13.30;50.70;;;;;;4862934;29;20112;-80
2021/11/07 12:32:37;;;;;;;3.08;1.83;;;13.40;51.60;;;;;;4862218;29;20240;-80
2021/11/07 12:35:17;;;;;;;3.88;1.90;;;13.40;51.60;;;;;;4864074;29;20037;-80
2021/11/07 12:40:39;;;;;;;2.75;1.80;;;13.50;51.00;;;;;;4869108;29;20029;-80
2021/11/07 12:43:08;;;;;;;4.53;2.13;;;13.50;51.50;;;;;;4868809;29;20063;-80
2021/11/07 12:45:39;;;;;;;2.42;1.50;;;13.50;51.90;;;;;;4868528;29;20337;-80
2021/11/07 12:48:08;;;;;;;1.83;1.40;;;13.50;50.70;;;;;;4868606;29;20100;-80
2021/11/07 12:50:58;;;;;;;3.25;1.95;;;13.50;50.90;;;;;;4869081;29;20037;-80
2021/11/07 12:53:28;;;;;;;3.58;2.42;;;13.60;51.20;;;;;;4865505;29;20053;-79
2021/11/07 12:55:54;;;;;;;1.92;1.27;;;13.70;51.50;;;;;;4851792;29;20046;-79
2021/11/07 12:58:21;;;;;;;1.88;1.30;;;13.70;49.90;;;;;;4848954;29;20094;-79
2021/11/07 13:00:49;;;;;;;1.70;1.20;;;13.70;48.60;;;;;;4868637;29;20060;-79
2021/11/07 13:03:17;;;;;;;2.20;1.55;;;13.60;48.50;;;;;;4868593;29;20334;-79
2021/11/07 13:05:43;;;;;;;3.33;1.50;;;13.60;49.30;;;;;;4852835;29;20221;-80
2021/11/07 13:13:31;;;;;;;;;;;13.70;49.30;;;;;;4865967;29;20034;-79
2021/11/07 13:24:31;;;;;;;2.85;1.83;;;13.70;50.40;;;;;;4868483;29;20042;-79
2021/11/07 13:29:47;;;;;;;3.53;1.50;;;13.70;49.50;;;;;;4862818;29;20381;-79
2021/11/07 13:32:37;;;;;;;3.17;1.60;;;13.70;50.30;;;;;;4868432;29;20058;-80
2021/11/07 13:35:07;;;;;;;3.33;2.00;;;13.60;49.10;;;;;;4868470;29;20025;-79
2021/11/07 13:37:42;;;;;;;3.85;1.85;;;13.60;49.10;;;;;;4856533;29;20028;-79
2021/11/07 13:40:20;;;;;;;3.17;1.80;;;13.50;49.60;;;;;;4873187;29;20040;-81
2021/11/07 13:42:47;;;;;;;2.72;1.80;;;13.50;49.30;;;;;;4856668;29;20040;-79
2021/11/07 13:45:29;;;;;;;2.80;1.83;;;13.50;49.20;;;;;;4856266;29;20037;-79
2021/11/07 13:47:59;;;;;;;2.15;1.67;;;13.60;49.70;;;;;;4869746;29;20061;-79
2021/11/07 13:50:26;;;;;;;3.05;2.03;;;13.70;50.50;;;;;;4869228;29;20114;-79
2021/11/07 13:52:52;;;;;;;3.90;2.35;;;13.70;50.70;;;;;;4846709;29;20048;-79
2021/11/07 13:55:32;;;;;;;2.40;1.83;;;13.80;50.40;;;;;;4870200;29;20041;-79
2021/11/07 13:58:11;;;;;;;2.88;1.58;;;13.90;50.10;;;;;;4868339;29;20360;-79
2021/11/07 14:00:37;;;;;;;2.40;1.60;;;13.80;50.10;;;;;;4864132;29;20071;-79
2021/11/07 14:03:03;;;;;;;5.40;1.98;;;13.70;50.40;;;;;;4880630;29;20034;-79
2021/11/07 14:05:29;;;;;;;4.00;2.10;;;13.60;49.90;;;;;;4869153;29;20057;-79
2021/11/07 14:08:05;;;;;;;3.08;2.03;;;13.60;49.90;;;;;;4854536;29;20217;-79
2021/11/07 14:10:33;;;;;;;4.70;1.40;;;13.70;49.10;;;;;;4867833;29;20022;-79
2021/11/07 14:13:05;;;;;;;2.33;1.65;;;13.60;50.30;;;;;;4869737;29;20036;-79
2021/11/07 14:15:35;;;;;;;3.80;1.95;;;13.50;49.60;;;;;;4867355;29;20048;-79
2021/11/07 14:18:18;;;;;;;7.25;3.33;;;13.40;49.50;;;;;;4869115;29;20092;-79
2021/11/07 14:21:04;;;;;;;2.38;1.70;;;13.30;49.80;;;;;;4849628;29;20145;-79
2021/11/07 14:26:36;;;;;;;3.03;1.95;;;13.20;50.30;;;;;;4865120;29;20022;-79
2021/11/07 14:34:33;;;;;;;5.55;2.08;;;13.00;51.00;;;;;;4864009;29;20026;-79
2021/11/07 14:37:07;;;;;;;2.92;2.00;;;13.00;51.10;;;;;;4849473;29;20089;-79
2021/11/07 14:45:27;;;;;;;3.00;1.77;;;12.80;51.00;;;;;;4868115;29;20070;-79
2021/11/07 14:48:28;;;;;;;6.93;2.38;;;12.80;51.10;;;;;;4867551;29;20116;-79
2021/11/07 14:51:31;;;;;;;2.90;1.48;;;12.70;51.10;;;;;;4850828;29;20061;-79
2021/11/07 14:59:54;;;;;;;2.83;1.35;;;12.60;50.10;;;;;;4828604;29;20192;-79
2021/11/07 15:02:51;;;;;;;3.20;1.73;;;12.50;50.40;;;;;;4821873;29;20091;-78
2021/11/07 15:08:21;;;;;;;2.95;1.52;;;12.40;50.50;;;;;;4813025;29;20100;-79
2021/11/07 15:16:36;;;;;;;2.85;1.70;;;12.20;51.60;;;;;;4832636;29;20041;-78
2021/11/07 15:19:12;;;;;;;3.03;1.67;;;12.10;51.90;;;;;;4832543;29;20074;-78
2021/11/07 15:21:48;;;;;;;5.72;1.83;;;12.00;52.10;;;;;;4818276;29;20046;-79
2021/11/07 15:24:28;;;;;;;3.70;2.23;;;11.90;53.10;;;;;;4818593;29;20121;-79
2021/11/07 15:26:59;;;;;;;2.30;1.83;;;11.80;53.10;;;;;;4828386;29;20283;-78
2021/11/07 15:29:32;;;;;;;2.33;1.65;;;11.80;53.20;;;;;;4816598;29;20062;-79
2021/11/07 15:32:10;;;;;;;4.00;2.05;;;11.60;53.60;;;;;;4831390;29;20057;-79
2021/11/07 15:34:46;;;;;;;3.50;2.10;;;11.60;54.20;;;;;;4863551;29;20052;-79
2021/11/07 15:37:34;;;;;;;3.00;2.00;;;11.60;54.20;;;;;;4848441;29;20065;-80
2021/11/07 15:40:04;;;;;;;4.35;2.50;;;11.50;54.70;;;;;;4865610;29;20744;-79
2021/11/07 15:42:32;;;;;;;4.20;2.53;;;11.50;54.80;;;;;;4870350;29;20535;-80
2021/11/07 15:45:07;;;;;;;3.90;2.17;;;11.40;55.20;;;;;;4866900;29;20038;-79
2021/11/07 15:53:06;;;;;;;4.00;2.72;;;11.10;56.70;;;;;;4880763;29;20041;-80
2021/11/07 15:55:57;;;;;;;5.22;2.47;;;10.90;57.60;;;;;;4863078;29;20072;-80
2021/11/07 16:01:05;;;;;;;5.32;3.05;;;10.50;59.20;;;;;;4868604;29;20033;-80
2021/11/07 16:11:30;;;;;;;6.53;3.70;;;9.90;61.30;;;;;;4866332;29;20036;-80
2021/11/07 16:16:42;;;;;;;5.22;3.15;;;9.60;61.20;;;;;;4846715;29;20347;-80
2021/11/07 16:19:14;;;;;;;8.00;3.40;;;9.70;61.00;;;;;;4852983;29;20041;-79
2021/11/07 16:21:45;;;;;;;8.93;4.85;;;9.80;59.50;;;;;;4868144;29;20040;-80
2021/11/07 16:24:12;;;;;;;10.63;4.10;;;10.00;59.40;;;;;;4856144;29;20120;-80
2021/11/07 16:26:38;;;;;;;5.68;2.95;;;10.10;59.40;;;;;;4851999;29;20069;-80
2021/11/07 16:29:04;;;;;;;6.40;2.78;;;10.20;59.00;;;;;;4850544;29;20049;-80
2021/11/07 16:31:35;;;;;;;4.78;2.78;;;10.20;58.60;;;;;;4867916;29;20229;-80
2021/11/07 16:34:06;;;;;;;10.65;3.17;;;10.30;58.90;;;;;;4858410;29;20364;-80
2021/11/07 16:36:35;;;;;;;5.00;3.05;;;10.30;58.40;;;;;;4866879;29;20021;-80
2021/11/07 16:39:15;;;;;;;5.95;2.40;;;10.30;58.40;;;;;;4837151;29;20052;-79
2021/11/07 16:41:47;;;;;;;4.28;2.25;;;10.30;58.00;;;;;;4844914;29;20045;-79
2021/11/07 16:44:15;;;;;;;3.63;2.58;;;10.40;58.30;;;;;;4864144;29;20056;-79
2021/11/07 16:46:46;;;;;;;3.75;2.40;;;10.40;58.10;;;;;;4860796;29;20394;-79
2021/11/07 16:49:14;;;;;;;7.72;2.42;;;10.40;58.70;;;;;;4848832;29;20262;-79
2021/11/07 16:52:19;;;;;;;4.65;2.67;;;10.40;58.90;;;;;;4867839;29;20041;-79
2021/11/07 16:54:38;;;;;;;5.07;3.03;;;10.30;59.60;;;;;;4861433;29;20076;-79
2021/11/07 16:57:05;;;;;;;4.85;3.15;;;10.10;59.70;;;;;;4864009;29;20030;-79
2021/11/07 17:02:14;;;;;;;7.28;3.63;;;9.80;61.00;;;;;;4849929;29;20098;-79
2021/11/07 17:04:47;;;;;;;7.57;3.22;;;9.70;61.60;;;;;;4868548;29;20037;-79
2021/11/07 17:10:06;;;;;;;6.30;3.10;;;9.50;62.30;;;;;;4865161;29;20057;-79
2021/11/07 17:12:33;;;;;;;5.28;2.88;;;9.40;62.10;;;;;;4868731;29;20226;-80
2021/11/07 17:15:07;;;;;;;4.28;2.70;;;9.40;61.60;;;;;;4866534;29;20128;-79
2021/11/07 17:20:03;;;;;;;13.32;5.93;;;9.80;60.20;;;;;;4851943;29;20037;-79
2021/11/07 17:25:03;;;;;;;4.40;2.28;;;10.00;59.30;;;;;;4846344;29;20495;-79
2021/11/07 17:27:39;;;;;;;3.70;2.17;;;10.10;59.50;;;;;;4866810;29;20349;-80
2021/11/07 17:30:17;;;;;;;5.28;2.63;;;10.20;59.20;;;;;;4838730;29;20117;-80
2021/11/07 17:32:54;;;;;;;5.13;2.60;;;10.30;59.10;;;;;;4865811;29;20060;-79
2021/11/07 17:35:27;;;;;;;16.10;4.38;;;10.30;59.00;;;;;;4852467;29;20041;-80
2021/11/07 17:38:08;;;;;;;11.93;5.47;;;10.30;59.00;;;;;;4853228;29;20444;-79
2021/11/07 17:56:48;;;;;;;6.60;3.38;;;10.20;60.10;;;;;;4862764;29;20048;-79
2021/11/07 17:59:14;;;;;;;5.55;3.60;;;10.30;60.40;;;;;;4863395;29;20357;-79
2021/11/07 18:01:42;;;;;;;8.88;4.47;;;10.20;60.60;;;;;;4850599;29;20039;-79
2021/11/07 18:04:08;;;;;;;8.93;4.57;;;10.20;61.10;;;;;;4843814;29;20049;-80
2021/11/07 18:06:40;;;;;;;10.73;5.20;;;10.10;61.30;;;;;;4845648;29;20033;-79
2021/11/07 18:09:09;;;;;;;6.40;3.63;;;10.10;61.10;;;;;;4848775;29;20037;-79
2021/11/07 18:11:39;;;;;;;13.95;5.55;;;10.10;61.10;;;;;;4827828;29;20069;-79
2021/11/07 18:14:06;;;;;;;8.13;4.53;;;10.10;61.10;;;;;;4851226;29;20333;-79
2021/11/07 18:16:33;;;;;;;6.07;3.83;;;10.20;60.90;;;;;;4846814;29;20114;-79
2021/11/07 18:18:59;;;;;;;7.00;4.00;;;10.20;60.80;;;;;;4847316;29;20064;-79
2021/11/07 18:21:31;;;;;;;4.55;3.28;;;10.30;60.50;;;;;;4820434;29;20124;-79
2021/11/07 18:24:10;;;;;;;5.47;3.40;;;10.30;60.20;;;;;;4835257;29;20300;-80
2021/11/07 18:26:37;;;;;;;5.80;3.20;;;10.30;60.50;;;;;;4856483;29;20049;-79
2021/11/07 18:29:03;;;;;;;5.40;3.30;;;10.30;60.60;;;;;;4849298;29;20046;-79
2021/11/07 18:31:28;;;;;;;5.05;2.90;;;10.30;60.60;;;;;;4853397;29;20030;-79
2021/11/07 18:33:54;;;;;;;5.20;3.17;;;10.30;60.50;;;;;;4836165;29;20344;-79
2021/11/07 18:36:20;;;;;;;4.00;3.00;;;10.40;60.50;;;;;;4848177;29;20049;-80
2021/11/07 18:38:47;;;;;;;6.55;3.17;;;10.40;60.30;;;;;;4840298;29;20349;-79
2021/11/07 18:41:13;;;;;;;5.10;3.13;;;10.30;60.20;;;;;;4836699;29;20030;-79
2021/11/07 18:43:39;;;;;;;4.38;2.85;;;10.40;60.00;;;;;;4868735;29;20072;-80
2021/11/07 18:46:04;;;;;;;6.60;3.20;;;10.40;60.20;;;;;;4846253;29;20464;-79
2021/11/07 18:48:30;;;;;;;4.50;2.72;;;10.40;60.00;;;;;;4850958;29;20158;-79
2021/11/07 18:50:56;;;;;;;6.45;2.72;;;10.50;60.60;;;;;;4863539;29;20029;-79
2021/11/07 18:53:22;;;;;;;5.97;3.53;;;10.60;60.70;;;;;;4862297;29;20292;-79
2021/11/07 18:55:48;;;;;;;7.13;3.58;;;10.60;60.70;;;;;;4845360;29;20037;-79
2021/11/07 18:58:14;;;;;;;7.38;3.63;;;10.60;60.60;;;;;;4845904;29;20034;-80
2021/11/07 19:00:44;;;;;;;5.50;3.45;;;10.70;60.70;;;;;;4868072;29;20029;-79
2021/11/07 19:03:10;;;;;;;6.63;3.65;;;10.70;61.20;;;;;;4869619;29;20034;-80
2021/11/07 19:05:36;;;;;;;5.38;2.92;;;10.70;61.70;;;;;;4843827;29;20044;-80
2021/11/07 19:08:03;;;;;;;6.78;3.53;;;10.70;61.70;;;;;;4866361;29;20097;-80
2021/11/07 19:10:30;;;;;;;6.35;3.47;;;10.70;61.90;;;;;;4862338;29;20377;-80
2021/11/07 19:12:56;;;;;;;6.18;3.50;;;10.70;62.50;;;;;;4862674;29;20026;-80
2021/11/07 19:15:23;;;;;;;4.70;2.92;;;10.70;62.60;;;;;;4847707;29;20030;-79
2021/11/07 19:17:49;;;;;;;4.70;3.03;;;10.70;62.70;;;;;;4850363;29;20029;-79
2021/11/07 19:20:20;;;;;;;8.37;4.47;;;10.80;62.80;;;;;;4860988;29;20029;-79
2021/11/07 19:22:47;;;;;;;12.82;6.30;;;10.80;62.80;;;;;;4865030;29;20318;-80
2021/11/07 19:25:13;;;;;;;21.05;10.27;;;10.80;62.90;;;;;;4861071;29;20551;-79
2021/11/07 19:27:39;;;;;;;13.57;6.30;;;10.80;63.10;;;;;;4851548;29;20058;-80
2021/11/07 19:30:09;;;;;;;10.82;3.92;;;10.80;63.20;;;;;;4842959;29;20072;-80
2021/11/07 19:32:35;;;;;;;8.07;4.43;;;10.80;63.50;;;;;;4830639;29;20034;-79
2021/11/07 19:35:02;;;;;;;7.38;3.85;;;10.70;63.90;;;;;;4854329;29;20071;-80
2021/11/07 19:37:28;;;;;;;5.17;3.00;;;10.80;64.10;;;;;;4838866;29;20044;-80
2021/11/07 19:39:55;;;;;;;5.60;2.95;;;10.80;64.40;;;;;;4860556;29;20042;-78
2021/11/07 19:42:22;;;;;;;6.50;3.58;;;10.80;64.40;;;;;;4851355;29;20094;-80
2021/11/07 19:44:51;;;;;;;6.35;3.55;;;10.90;64.80;;;;;;4844140;29;20037;-79
2021/11/07 19:47:23;;;;;;;7.38;3.70;;;10.90;65.20;;;;;;4823596;29;20140;-79
2021/11/07 19:50:03;;;;;;;7.05;3.58;;;10.90;65.60;;;;;;4862850;29;20043;-78
2021/11/07 19:52:31;;;;;;;5.97;3.90;;;10.90;66.50;;;;;;4844926;29;20037;-78
2021/11/07 19:54:58;;;;;;;5.82;3.47;;;11.00;65.80;;;;;;4863041;29;20013;-80
2021/11/07 19:57:24;;;;;;;;;;;11.00;65.90;;;;;;4860375;29;20057;-79
2021/11/07 20:00:24;;;;;;;6.93;3.63;;;11.00;66.10;;;;;;4844481;29;19912;-80
2021/11/07 20:10:27;;;;;;;4.93;3.30;;;11.00;66.50;;;;;;4855563;29;20057;-79
2021/11/07 20:12:54;;;;;;;6.63;3.72;;;11.10;66.80;;;;;;4847584;29;20076;-79
2021/11/07 20:15:21;;;;;;;5.85;3.30;;;11.00;66.70;;;;;;4816780;29;20029;-79